sensor_id;sensor_type;location;lat;lon;timestamp;P1;durP1;ratioP1;P2;durP2;ratioP2
23866;SDS011;12114;53.404;-1.502;2023-06-22T00:01:46;5.75;;;4.30;;
23866;SDS011;12114;53.404;-1.502;2023-06-22T00:04:30;5.88;;;4.35;;
23866;SDS011;12114;53.404;-1.502;2023-06-22T00:07:14;6.30;;;4.55;;
23866;SDS011;12114;53.404;-1.502;2023-06-22T00:09:58;6.93;;;4.60;;
23866;SDS011;12114;53.404;-1.502;2023-06-22T00:12:42;6.65;;;4.80;;
23866;SDS011;12114;53.404;-1.502;2023-06-22T00:15:26;8.00;;;5.35;;
23866;SDS011;12114;53.404;-1.502;2023-06-22T00:18:10;9.18;;;5.32;;
23866;SDS011;12114;53.404;-1.502;2023-06-22T00:20:55;7.78;;;5.45;;
23866;SDS011;12114;53.404;-1.502;2023-06-22T00:23:42;7.57;;;4.80;;
23866;SDS011;12114;53.404;-1.502;2023-06-22T00:26:26;9.23;;;5.32;;
23866;SDS011;12114;53.404;-1.502;2023-06-22T00:29:10;7.93;;;4.70;;
23866;SDS011;12114;53.404;-1.502;2023-06-22T00:31:55;7.93;;;5.88;;
23866;SDS011;12114;53.404;-1.502;2023-06-22T00:34:38;7.50;;;5.57;;
23866;SDS011;12114;53.404;-1.502;2023-06-22T00:37:22;7.72;;;5.45;;
23866;SDS011;12114;53.404;-1.502;2023-06-22T00:40:09;9.50;;;5.82;;
23866;SDS011;12114;53.404;-1.502;2023-06-22T00:42:55;10.98;;;5.10;;
23866;SDS011;12114;53.404;-1.502;2023-06-22T00:45:39;6.43;;;5.50;;
23866;SDS011;12114;53.404;-1.502;2023-06-22T00:48:23;10.90;;;6.07;;
23866;SDS011;12114;53.404;-1.502;2023-06-22T00:51:08;8.45;;;5.57;;
23866;SDS011;12114;53.404;-1.502;2023-06-22T00:53:52;7.25;;;5.70;;
23866;SDS011;12114;53.404;-1.502;2023-06-22T00:56:37;10.48;;;6.00;;
23866;SDS011;12114;53.404;-1.502;2023-06-22T00:59:21;7.85;;;5.03;;
23866;SDS011;12114;53.404;-1.502;2023-06-22T01:02:05;7.25;;;4.90;;
23866;SDS011;12114;53.404;-1.502;2023-06-22T01:04:49;7.85;;;5.22;;
23866;SDS011;12114;53.404;-1.502;2023-06-22T01:07:38;5.47;;;4.78;;
23866;SDS011;12114;53.404;-1.502;2023-06-22T01:18:42;7.78;;;4.82;;
23866;SDS011;12114;53.404;-1.502;2023-06-22T01:21:28;6.53;;;4.57;;
23866;SDS011;12114;53.404;-1.502;2023-06-22T01:24:24;7.60;;;5.55;;
23866;SDS011;12114;53.404;-1.502;2023-06-22T01:30:00;8.93;;;5.15;;
23866;SDS011;12114;53.404;-1.502;2023-06-22T01:32:46;8.60;;;5.25;;
23866;SDS011;12114;53.404;-1.502;2023-06-22T01:35:30;11.85;;;5.32;;
23866;SDS011;12114;53.404;-1.502;2023-06-22T01:38:15;7.80;;;5.28;;
23866;SDS011;12114;53.404;-1.502;2023-06-22T01:40:59;7.40;;;5.20;;
23866;SDS011;12114;53.404;-1.502;2023-06-22T01:43:44;6.55;;;4.90;;
23866;SDS011;12114;53.404;-1.502;2023-06-22T01:46:29;5.85;;;4.97;;
23866;SDS011;12114;53.404;-1.502;2023-06-22T01:49:12;6.88;;;4.97;;
23866;SDS011;12114;53.404;-1.502;2023-06-22T01:51:56;8.48;;;6.00;;
23866;SDS011;12114;53.404;-1.502;2023-06-22T01:54:41;8.43;;;5.57;;
23866;SDS011;12114;53.404;-1.502;2023-06-22T01:57:25;7.95;;;5.70;;
23866;SDS011;12114;53.404;-1.502;2023-06-22T02:00:11;7.50;;;5.60;;
23866;SDS011;12114;53.404;-1.502;2023-06-22T02:02:57;7.90;;;5.82;;
23866;SDS011;12114;53.404;-1.502;2023-06-22T02:05:43;9.07;;;5.38;;
23866;SDS011;12114;53.404;-1.502;2023-06-22T02:08:30;5.47;;;4.80;;
23866;SDS011;12114;53.404;-1.502;2023-06-22T02:11:15;7.57;;;5.90;;
23866;SDS011;12114;53.404;-1.502;2023-06-22T02:14:00;7.75;;;5.30;;
23866;SDS011;12114;53.404;-1.502;2023-06-22T02:16:44;8.98;;;5.80;;
23866;SDS011;12114;53.404;-1.502;2023-06-22T02:19:29;7.80;;;5.03;;
23866;SDS011;12114;53.404;-1.502;2023-06-22T02:22:16;7.80;;;5.43;;
23866;SDS011;12114;53.404;-1.502;2023-06-22T02:25:00;8.63;;;5.15;;
23866;SDS011;12114;53.404;-1.502;2023-06-22T02:27:44;7.20;;;5.25;;
23866;SDS011;12114;53.404;-1.502;2023-06-22T02:30:29;9.20;;;5.25;;
23866;SDS011;12114;53.404;-1.502;2023-06-22T02:33:13;9.38;;;4.82;;
23866;SDS011;12114;53.404;-1.502;2023-06-22T02:35:57;10.80;;;4.93;;
23866;SDS011;12114;53.404;-1.502;2023-06-22T02:38:41;8.52;;;5.10;;
23866;SDS011;12114;53.404;-1.502;2023-06-22T02:41:31;8.90;;;5.38;;
23866;SDS011;12114;53.404;-1.502;2023-06-22T02:44:16;6.55;;;4.93;;
23866;SDS011;12114;53.404;-1.502;2023-06-22T02:46:59;5.57;;;4.75;;
23866;SDS011;12114;53.404;-1.502;2023-06-22T02:49:43;8.07;;;4.45;;
23866;SDS011;12114;53.404;-1.502;2023-06-22T02:52:29;8.52;;;4.95;;
23866;SDS011;12114;53.404;-1.502;2023-06-22T02:55:13;8.18;;;4.78;;
23866;SDS011;12114;53.404;-1.502;2023-06-22T02:57:57;5.18;;;4.60;;
23866;SDS011;12114;53.404;-1.502;2023-06-22T03:00:40;7.82;;;4.60;;
23866;SDS011;12114;53.404;-1.502;2023-06-22T03:03:24;5.15;;;4.60;;
23866;SDS011;12114;53.404;-1.502;2023-06-22T03:06:09;8.13;;;5.03;;
23866;SDS011;12114;53.404;-1.502;2023-06-22T03:09:02;7.82;;;4.72;;
23866;SDS011;12114;53.404;-1.502;2023-06-22T03:11:47;7.32;;;4.70;;
23866;SDS011;12114;53.404;-1.502;2023-06-22T03:14:31;7.60;;;4.63;;
23866;SDS011;12114;53.404;-1.502;2023-06-22T03:17:15;9.02;;;5.25;;
23866;SDS011;12114;53.404;-1.502;2023-06-22T03:19:59;5.20;;;3.97;;
23866;SDS011;12114;53.404;-1.502;2023-06-22T03:22:43;6.00;;;4.72;;
23866;SDS011;12114;53.404;-1.502;2023-06-22T03:25:27;5.82;;;4.95;;
23866;SDS011;12114;53.404;-1.502;2023-06-22T03:28:11;8.05;;;4.85;;
23866;SDS011;12114;53.404;-1.502;2023-06-22T03:30:57;7.45;;;4.88;;
23866;SDS011;12114;53.404;-1.502;2023-06-22T03:33:41;6.38;;;4.80;;
23866;SDS011;12114;53.404;-1.502;2023-06-22T03:36:25;7.07;;;4.72;;
23866;SDS011;12114;53.404;-1.502;2023-06-22T03:39:08;5.70;;;4.68;;
23866;SDS011;12114;53.404;-1.502;2023-06-22T03:41:52;7.05;;;4.60;;
23866;SDS011;12114;53.404;-1.502;2023-06-22T03:44:36;6.05;;;4.32;;
23866;SDS011;12114;53.404;-1.502;2023-06-22T03:47:20;6.60;;;4.18;;
23866;SDS011;12114;53.404;-1.502;2023-06-22T03:50:04;8.40;;;4.57;;
23866;SDS011;12114;53.404;-1.502;2023-06-22T03:52:49;5.90;;;4.43;;
23866;SDS011;12114;53.404;-1.502;2023-06-22T03:55:36;7.20;;;4.50;;
23866;SDS011;12114;53.404;-1.502;2023-06-22T03:58:20;5.60;;;4.43;;
23866;SDS011;12114;53.404;-1.502;2023-06-22T04:01:04;5.57;;;4.47;;
23866;SDS011;12114;53.404;-1.502;2023-06-22T04:03:48;6.85;;;4.25;;
23866;SDS011;12114;53.404;-1.502;2023-06-22T04:06:33;5.70;;;4.32;;
23866;SDS011;12114;53.404;-1.502;2023-06-22T04:09:18;6.93;;;4.60;;
23866;SDS011;12114;53.404;-1.502;2023-06-22T04:12:02;6.22;;;4.03;;
23866;SDS011;12114;53.404;-1.502;2023-06-22T04:14:46;9.38;;;4.53;;
23866;SDS011;12114;53.404;-1.502;2023-06-22T04:17:30;5.28;;;4.22;;
23866;SDS011;12114;53.404;-1.502;2023-06-22T04:20:14;5.25;;;4.40;;
23866;SDS011;12114;53.404;-1.502;2023-06-22T04:22:58;6.35;;;3.92;;
23866;SDS011;12114;53.404;-1.502;2023-06-22T04:25:42;6.53;;;3.90;;
23866;SDS011;12114;53.404;-1.502;2023-06-22T04:28:26;5.13;;;4.10;;
23866;SDS011;12114;53.404;-1.502;2023-06-22T04:31:09;6.13;;;4.22;;
23866;SDS011;12114;53.404;-1.502;2023-06-22T04:33:54;6.00;;;4.30;;
23866;SDS011;12114;53.404;-1.502;2023-06-22T04:36:38;6.95;;;4.20;;
23866;SDS011;12114;53.404;-1.502;2023-06-22T04:39:23;7.80;;;4.57;;
23866;SDS011;12114;53.404;-1.502;2023-06-22T04:42:07;5.63;;;3.97;;
23866;SDS011;12114;53.404;-1.502;2023-06-22T04:44:51;6.85;;;4.20;;
23866;SDS011;12114;53.404;-1.502;2023-06-22T04:47:35;7.85;;;4.43;;
23866;SDS011;12114;53.404;-1.502;2023-06-22T04:50:23;7.38;;;4.10;;
23866;SDS011;12114;53.404;-1.502;2023-06-22T04:53:07;5.95;;;4.43;;
23866;SDS011;12114;53.404;-1.502;2023-06-22T04:55:53;6.25;;;4.13;;
23866;SDS011;12114;53.404;-1.502;2023-06-22T04:58:37;6.78;;;3.80;;
23866;SDS011;12114;53.404;-1.502;2023-06-22T05:01:21;5.55;;;4.20;;
23866;SDS011;12114;53.404;-1.502;2023-06-22T05:04:06;5.85;;;4.20;;
23866;SDS011;12114;53.404;-1.502;2023-06-22T05:06:51;7.18;;;4.57;;
23866;SDS011;12114;53.404;-1.502;2023-06-22T05:09:36;6.10;;;3.92;;
23866;SDS011;12114;53.404;-1.502;2023-06-22T05:12:19;6.60;;;4.35;;
23866;SDS011;12114;53.404;-1.502;2023-06-22T05:15:05;5.97;;;4.75;;
23866;SDS011;12114;53.404;-1.502;2023-06-22T05:17:50;6.45;;;4.88;;
23866;SDS011;12114;53.404;-1.502;2023-06-22T05:20:34;7.53;;;4.57;;
23866;SDS011;12114;53.404;-1.502;2023-06-22T05:23:19;6.28;;;4.10;;
23866;SDS011;12114;53.404;-1.502;2023-06-22T05:26:03;6.40;;;4.30;;
23866;SDS011;12114;53.404;-1.502;2023-06-22T05:28:47;4.93;;;4.05;;
23866;SDS011;12114;53.404;-1.502;2023-06-22T05:31:31;5.50;;;4.55;;
23866;SDS011;12114;53.404;-1.502;2023-06-22T05:34:15;9.90;;;4.25;;
23866;SDS011;12114;53.404;-1.502;2023-06-22T05:36:59;6.65;;;4.35;;
23866;SDS011;12114;53.404;-1.502;2023-06-22T05:39:44;7.28;;;4.03;;
23866;SDS011;12114;53.404;-1.502;2023-06-22T05:42:28;7.20;;;4.30;;
23866;SDS011;12114;53.404;-1.502;2023-06-22T05:45:12;6.13;;;4.60;;
23866;SDS011;12114;53.404;-1.502;2023-06-22T05:47:56;9.88;;;4.45;;
23866;SDS011;12114;53.404;-1.502;2023-06-22T05:50:40;4.82;;;4.30;;
23866;SDS011;12114;53.404;-1.502;2023-06-22T05:53:24;7.35;;;4.40;;
23866;SDS011;12114;53.404;-1.502;2023-06-22T05:56:08;6.10;;;4.00;;
23866;SDS011;12114;53.404;-1.502;2023-06-22T05:58:52;7.40;;;4.40;;
23866;SDS011;12114;53.404;-1.502;2023-06-22T06:01:36;8.43;;;4.10;;
23866;SDS011;12114;53.404;-1.502;2023-06-22T06:04:20;7.32;;;3.80;;
23866;SDS011;12114;53.404;-1.502;2023-06-22T06:07:04;5.45;;;3.65;;
23866;SDS011;12114;53.404;-1.502;2023-06-22T06:09:48;6.40;;;3.80;;
23866;SDS011;12114;53.404;-1.502;2023-06-22T06:12:32;4.20;;;3.38;;
23866;SDS011;12114;53.404;-1.502;2023-06-22T06:15:16;6.55;;;3.90;;
23866;SDS011;12114;53.404;-1.502;2023-06-22T06:17:59;6.00;;;3.22;;
23866;SDS011;12114;53.404;-1.502;2023-06-22T06:20:44;5.25;;;3.08;;
23866;SDS011;12114;53.404;-1.502;2023-06-22T06:23:28;5.25;;;3.05;;
23866;SDS011;12114;53.404;-1.502;2023-06-22T06:26:12;5.43;;;3.35;;
23866;SDS011;12114;53.404;-1.502;2023-06-22T06:28:56;7.18;;;2.85;;
23866;SDS011;12114;53.404;-1.502;2023-06-22T06:31:41;5.75;;;3.03;;
23866;SDS011;12114;53.404;-1.502;2023-06-22T06:34:25;6.55;;;3.15;;
23866;SDS011;12114;53.404;-1.502;2023-06-22T06:37:09;3.50;;;2.63;;
23866;SDS011;12114;53.404;-1.502;2023-06-22T06:39:53;4.65;;;3.40;;
23866;SDS011;12114;53.404;-1.502;2023-06-22T06:42:37;5.82;;;3.15;;
23866;SDS011;12114;53.404;-1.502;2023-06-22T06:45:22;3.67;;;2.75;;
23866;SDS011;12114;53.404;-1.502;2023-06-22T06:48:07;5.90;;;3.00;;
23866;SDS011;12114;53.404;-1.502;2023-06-22T06:50:51;6.90;;;2.90;;
23866;SDS011;12114;53.404;-1.502;2023-06-22T06:53:35;4.82;;;2.88;;
23866;SDS011;12114;53.404;-1.502;2023-06-22T06:56:19;6.85;;;2.95;;
23866;SDS011;12114;53.404;-1.502;2023-06-22T06:59:03;4.22;;;2.85;;
23866;SDS011;12114;53.404;-1.502;2023-06-22T07:01:47;5.07;;;2.75;;
23866;SDS011;12114;53.404;-1.502;2023-06-22T07:04:32;4.43;;;2.63;;
23866;SDS011;12114;53.404;-1.502;2023-06-22T07:07:16;5.03;;;2.72;;
23866;SDS011;12114;53.404;-1.502;2023-06-22T07:10:00;4.13;;;2.85;;
23866;SDS011;12114;53.404;-1.502;2023-06-22T07:12:44;4.13;;;2.80;;
23866;SDS011;12114;53.404;-1.502;2023-06-22T07:15:28;5.07;;;2.60;;
23866;SDS011;12114;53.404;-1.502;2023-06-22T07:18:12;5.85;;;3.17;;
23866;SDS011;12114;53.404;-1.502;2023-06-22T07:20:56;6.93;;;2.60;;
23866;SDS011;12114;53.404;-1.502;2023-06-22T07:23:40;3.78;;;2.67;;
23866;SDS011;12114;53.404;-1.502;2023-06-22T07:26:24;4.35;;;2.80;;
23866;SDS011;12114;53.404;-1.502;2023-06-22T07:29:08;6.22;;;2.75;;
23866;SDS011;12114;53.404;-1.502;2023-06-22T07:31:52;5.65;;;2.80;;
23866;SDS011;12114;53.404;-1.502;2023-06-22T07:34:36;4.47;;;2.55;;
23866;SDS011;12114;53.404;-1.502;2023-06-22T07:37:20;4.13;;;2.58;;
23866;SDS011;12114;53.404;-1.502;2023-06-22T07:40:04;3.60;;;2.72;;
23866;SDS011;12114;53.404;-1.502;2023-06-22T07:42:50;4.95;;;2.80;;
23866;SDS011;12114;53.404;-1.502;2023-06-22T07:45:35;4.80;;;3.00;;
23866;SDS011;12114;53.404;-1.502;2023-06-22T07:48:22;6.57;;;3.20;;
23866;SDS011;12114;53.404;-1.502;2023-06-22T07:51:07;7.72;;;3.08;;
23866;SDS011;12114;53.404;-1.502;2023-06-22T07:53:51;7.07;;;3.22;;
23866;SDS011;12114;53.404;-1.502;2023-06-22T07:56:36;9.65;;;3.30;;
23866;SDS011;12114;53.404;-1.502;2023-06-22T07:59:20;4.63;;;3.17;;
23866;SDS011;12114;53.404;-1.502;2023-06-22T08:02:04;3.63;;;2.72;;
23866;SDS011;12114;53.404;-1.502;2023-06-22T08:04:48;3.60;;;2.60;;
23866;SDS011;12114;53.404;-1.502;2023-06-22T08:07:32;5.15;;;2.95;;
23866;SDS011;12114;53.404;-1.502;2023-06-22T08:10:17;7.55;;;2.85;;
23866;SDS011;12114;53.404;-1.502;2023-06-22T08:13:01;5.55;;;3.05;;
23866;SDS011;12114;53.404;-1.502;2023-06-22T08:15:45;4.35;;;2.60;;
23866;SDS011;12114;53.404;-1.502;2023-06-22T08:18:29;4.38;;;2.60;;
23866;SDS011;12114;53.404;-1.502;2023-06-22T08:21:13;7.75;;;3.10;;
23866;SDS011;12114;53.404;-1.502;2023-06-22T08:23:57;5.28;;;3.58;;
23866;SDS011;12114;53.404;-1.502;2023-06-22T08:26:41;6.13;;;3.35;;
23866;SDS011;12114;53.404;-1.502;2023-06-22T08:29:25;6.90;;;3.53;;
23866;SDS011;12114;53.404;-1.502;2023-06-22T08:32:09;7.55;;;3.80;;
23866;SDS011;12114;53.404;-1.502;2023-06-22T08:34:54;8.20;;;3.20;;
23866;SDS011;12114;53.404;-1.502;2023-06-22T08:37:38;5.60;;;3.10;;
23866;SDS011;12114;53.404;-1.502;2023-06-22T08:40:22;3.92;;;2.78;;
23866;SDS011;12114;53.404;-1.502;2023-06-22T08:43:08;4.20;;;3.22;;
23866;SDS011;12114;53.404;-1.502;2023-06-22T08:45:51;4.90;;;3.17;;
23866;SDS011;12114;53.404;-1.502;2023-06-22T08:48:36;4.63;;;3.25;;
23866;SDS011;12114;53.404;-1.502;2023-06-22T08:51:19;5.05;;;3.10;;
23866;SDS011;12114;53.404;-1.502;2023-06-22T08:54:04;6.13;;;3.20;;
23866;SDS011;12114;53.404;-1.502;2023-06-22T08:56:48;5.87;;;3.67;;
23866;SDS011;12114;53.404;-1.502;2023-06-22T08:59:32;7.15;;;3.88;;
23866;SDS011;12114;53.404;-1.502;2023-06-22T09:02:16;6.43;;;4.47;;
23866;SDS011;12114;53.404;-1.502;2023-06-22T09:05:02;7.43;;;3.97;;
23866;SDS011;12114;53.404;-1.502;2023-06-22T09:07:46;5.93;;;4.10;;
23866;SDS011;12114;53.404;-1.502;2023-06-22T09:10:30;6.00;;;4.10;;
23866;SDS011;12114;53.404;-1.502;2023-06-22T09:13:14;5.93;;;4.05;;
23866;SDS011;12114;53.404;-1.502;2023-06-22T09:15:58;6.00;;;4.10;;
23866;SDS011;12114;53.404;-1.502;2023-06-22T09:18:42;9.80;;;4.65;;
23866;SDS011;12114;53.404;-1.502;2023-06-22T09:21:27;8.32;;;4.65;;
23866;SDS011;12114;53.404;-1.502;2023-06-22T09:24:11;8.52;;;4.10;;
23866;SDS011;12114;53.404;-1.502;2023-06-22T09:26:55;6.30;;;4.15;;
23866;SDS011;12114;53.404;-1.502;2023-06-22T09:29:39;8.07;;;4.28;;
23866;SDS011;12114;53.404;-1.502;2023-06-22T09:32:23;6.32;;;3.67;;
23866;SDS011;12114;53.404;-1.502;2023-06-22T09:35:07;5.22;;;3.60;;
23866;SDS011;12114;53.404;-1.502;2023-06-22T09:37:51;5.17;;;3.67;;
23866;SDS011;12114;53.404;-1.502;2023-06-22T09:40:35;5.75;;;3.90;;
23866;SDS011;12114;53.404;-1.502;2023-06-22T09:43:23;5.75;;;3.95;;
23866;SDS011;12114;53.404;-1.502;2023-06-22T09:46:07;5.10;;;3.90;;
23866;SDS011;12114;53.404;-1.502;2023-06-22T09:48:52;9.95;;;4.13;;
23866;SDS011;12114;53.404;-1.502;2023-06-22T09:51:36;4.13;;;3.55;;
23866;SDS011;12114;53.404;-1.502;2023-06-22T09:54:20;5.40;;;3.47;;
23866;SDS011;12114;53.404;-1.502;2023-06-22T09:57:04;7.22;;;3.78;;
23866;SDS011;12114;53.404;-1.502;2023-06-22T09:59:48;4.97;;;3.58;;
23866;SDS011;12114;53.404;-1.502;2023-06-22T10:02:32;4.15;;;3.15;;
23866;SDS011;12114;53.404;-1.502;2023-06-22T10:05:16;9.07;;;3.80;;
23866;SDS011;12114;53.404;-1.502;2023-06-22T10:08:00;10.20;;;4.22;;
23866;SDS011;12114;53.404;-1.502;2023-06-22T10:10:44;6.93;;;3.78;;
23866;SDS011;12114;53.404;-1.502;2023-06-22T10:13:28;6.53;;;3.88;;
23866;SDS011;12114;53.404;-1.502;2023-06-22T10:16:12;7.65;;;4.70;;
23866;SDS011;12114;53.404;-1.502;2023-06-22T10:18:56;6.65;;;3.67;;
23866;SDS011;12114;53.404;-1.502;2023-06-22T10:21:40;8.57;;;4.57;;
23866;SDS011;12114;53.404;-1.502;2023-06-22T10:24:24;6.00;;;4.13;;
23866;SDS011;12114;53.404;-1.502;2023-06-22T10:27:08;8.15;;;5.00;;
23866;SDS011;12114;53.404;-1.502;2023-06-22T10:29:52;7.32;;;4.28;;
23866;SDS011;12114;53.404;-1.502;2023-06-22T10:32:37;7.28;;;5.60;;
23866;SDS011;12114;53.404;-1.502;2023-06-22T10:35:21;8.63;;;5.03;;
23866;SDS011;12114;53.404;-1.502;2023-06-22T10:38:05;7.40;;;5.05;;
23866;SDS011;12114;53.404;-1.502;2023-06-22T10:40:49;9.18;;;5.30;;
23866;SDS011;12114;53.404;-1.502;2023-06-22T10:43:33;7.50;;;4.97;;
23866;SDS011;12114;53.404;-1.502;2023-06-22T10:46:17;7.88;;;4.90;;
23866;SDS011;12114;53.404;-1.502;2023-06-22T10:49:01;10.05;;;5.03;;
23866;SDS011;12114;53.404;-1.502;2023-06-22T10:51:45;7.38;;;4.60;;
23866;SDS011;12114;53.404;-1.502;2023-06-22T10:54:29;8.95;;;5.00;;
23866;SDS011;12114;53.404;-1.502;2023-06-22T10:57:13;7.18;;;4.93;;
23866;SDS011;12114;53.404;-1.502;2023-06-22T10:59:57;8.52;;;6.30;;
23866;SDS011;12114;53.404;-1.502;2023-06-22T11:02:41;8.63;;;5.90;;
23866;SDS011;12114;53.404;-1.502;2023-06-22T11:05:25;9.35;;;5.80;;
23866;SDS011;12114;53.404;-1.502;2023-06-22T11:08:09;8.32;;;4.82;;
23866;SDS011;12114;53.404;-1.502;2023-06-22T11:10:53;6.93;;;5.55;;
23866;SDS011;12114;53.404;-1.502;2023-06-22T11:13:37;8.80;;;5.72;;
23866;SDS011;12114;53.404;-1.502;2023-06-22T11:16:21;7.55;;;5.65;;
23866;SDS011;12114;53.404;-1.502;2023-06-22T11:19:05;10.00;;;5.53;;
23866;SDS011;12114;53.404;-1.502;2023-06-22T11:21:49;9.02;;;5.85;;
23866;SDS011;12114;53.404;-1.502;2023-06-22T11:24:33;11.18;;;5.93;;
23866;SDS011;12114;53.404;-1.502;2023-06-22T11:27:17;18.25;;;6.88;;
23866;SDS011;12114;53.404;-1.502;2023-06-22T11:30:01;8.35;;;5.88;;
23866;SDS011;12114;53.404;-1.502;2023-06-22T11:32:46;10.52;;;6.18;;
23866;SDS011;12114;53.404;-1.502;2023-06-22T11:35:30;13.40;;;6.22;;
23866;SDS011;12114;53.404;-1.502;2023-06-22T11:38:14;7.30;;;5.78;;
23866;SDS011;12114;53.404;-1.502;2023-06-22T11:40:58;9.75;;;5.93;;
23866;SDS011;12114;53.404;-1.502;2023-06-22T11:43:42;12.68;;;7.03;;
23866;SDS011;12114;53.404;-1.502;2023-06-22T11:46:26;10.98;;;6.70;;
23866;SDS011;12114;53.404;-1.502;2023-06-22T11:49:10;10.38;;;7.13;;
23866;SDS011;12114;53.404;-1.502;2023-06-22T11:51:54;11.65;;;7.63;;
23866;SDS011;12114;53.404;-1.502;2023-06-22T11:54:37;14.77;;;7.63;;
23866;SDS011;12114;53.404;-1.502;2023-06-22T11:57:22;12.10;;;7.65;;
23866;SDS011;12114;53.404;-1.502;2023-06-22T12:00:06;13.63;;;8.52;;
23866;SDS011;12114;53.404;-1.502;2023-06-22T12:02:58;10.52;;;7.88;;
23866;SDS011;12114;53.404;-1.502;2023-06-22T12:05:42;12.13;;;8.98;;
23866;SDS011;12114;53.404;-1.502;2023-06-22T12:08:25;15.80;;;9.68;;
23866;SDS011;12114;53.404;-1.502;2023-06-22T12:11:09;10.45;;;7.70;;
23866;SDS011;12114;53.404;-1.502;2023-06-22T12:13:53;13.35;;;7.88;;
23866;SDS011;12114;53.404;-1.502;2023-06-22T12:16:37;7.43;;;5.78;;
23866;SDS011;12114;53.404;-1.502;2023-06-22T12:19:22;9.38;;;6.78;;
23866;SDS011;12114;53.404;-1.502;2023-06-22T12:22:06;6.47;;;5.18;;
23866;SDS011;12114;53.404;-1.502;2023-06-22T12:24:50;8.18;;;5.72;;
23866;SDS011;12114;53.404;-1.502;2023-06-22T12:27:34;8.23;;;5.15;;
23866;SDS011;12114;53.404;-1.502;2023-06-22T12:30:18;6.20;;;5.10;;
23866;SDS011;12114;53.404;-1.502;2023-06-22T12:33:02;7.88;;;5.22;;
23866;SDS011;12114;53.404;-1.502;2023-06-22T12:35:46;8.15;;;5.90;;
23866;SDS011;12114;53.404;-1.502;2023-06-22T12:38:32;10.95;;;6.72;;
23866;SDS011;12114;53.404;-1.502;2023-06-22T12:41:16;8.27;;;6.05;;
23866;SDS011;12114;53.404;-1.502;2023-06-22T12:44:00;8.20;;;5.43;;
23866;SDS011;12114;53.404;-1.502;2023-06-22T12:46:44;7.65;;;5.95;;
23866;SDS011;12114;53.404;-1.502;2023-06-22T12:49:28;7.18;;;4.70;;
23866;SDS011;12114;53.404;-1.502;2023-06-22T12:52:12;5.93;;;4.10;;
23866;SDS011;12114;53.404;-1.502;2023-06-22T12:54:56;8.05;;;5.07;;
23866;SDS011;12114;53.404;-1.502;2023-06-22T12:57:40;8.77;;;5.93;;
23866;SDS011;12114;53.404;-1.502;2023-06-22T13:00:24;6.00;;;5.10;;
23866;SDS011;12114;53.404;-1.502;2023-06-22T13:03:08;8.05;;;4.90;;
23866;SDS011;12114;53.404;-1.502;2023-06-22T13:05:52;6.07;;;4.20;;
23866;SDS011;12114;53.404;-1.502;2023-06-22T13:08:35;7.43;;;4.93;;
23866;SDS011;12114;53.404;-1.502;2023-06-22T13:11:19;6.57;;;4.25;;
23866;SDS011;12114;53.404;-1.502;2023-06-22T13:14:03;6.00;;;4.18;;
23866;SDS011;12114;53.404;-1.502;2023-06-22T13:16:47;5.32;;;3.47;;
23866;SDS011;12114;53.404;-1.502;2023-06-22T13:19:31;3.55;;;3.25;;
23866;SDS011;12114;53.404;-1.502;2023-06-22T13:22:26;3.67;;;3.03;;
23866;SDS011;12114;53.404;-1.502;2023-06-22T13:25:10;4.72;;;2.60;;
23866;SDS011;12114;53.404;-1.502;2023-06-22T13:27:56;4.10;;;2.72;;
23866;SDS011;12114;53.404;-1.502;2023-06-22T13:30:40;4.57;;;2.60;;
23866;SDS011;12114;53.404;-1.502;2023-06-22T13:33:24;3.22;;;2.72;;
23866;SDS011;12114;53.404;-1.502;2023-06-22T13:36:08;3.13;;;2.83;;
23866;SDS011;12114;53.404;-1.502;2023-06-22T13:38:52;3.65;;;3.03;;
23866;SDS011;12114;53.404;-1.502;2023-06-22T13:41:36;3.80;;;3.10;;
23866;SDS011;12114;53.404;-1.502;2023-06-22T13:44:20;5.03;;;2.95;;
23866;SDS011;12114;53.404;-1.502;2023-06-22T13:49:49;3.97;;;2.75;;
23866;SDS011;12114;53.404;-1.502;2023-06-22T13:52:33;4.55;;;2.53;;
23866;SDS011;12114;53.404;-1.502;2023-06-22T13:55:17;4.18;;;2.90;;
23866;SDS011;12114;53.404;-1.502;2023-06-22T13:58:03;3.70;;;2.58;;
23866;SDS011;12114;53.404;-1.502;2023-06-22T14:00:47;3.05;;;2.30;;
23866;SDS011;12114;53.404;-1.502;2023-06-22T14:03:33;3.35;;;2.22;;
23866;SDS011;12114;53.404;-1.502;2023-06-22T14:06:17;4.85;;;2.83;;
23866;SDS011;12114;53.404;-1.502;2023-06-22T14:09:01;8.48;;;3.10;;
23866;SDS011;12114;53.404;-1.502;2023-06-22T14:11:44;2.70;;;2.33;;
23866;SDS011;12114;53.404;-1.502;2023-06-22T14:14:28;3.08;;;2.58;;
23866;SDS011;12114;53.404;-1.502;2023-06-22T14:17:12;3.63;;;2.55;;
23866;SDS011;12114;53.404;-1.502;2023-06-22T14:19:56;4.32;;;2.83;;
23866;SDS011;12114;53.404;-1.502;2023-06-22T14:22:40;5.63;;;3.20;;
23866;SDS011;12114;53.404;-1.502;2023-06-22T14:25:24;3.72;;;2.70;;
23866;SDS011;12114;53.404;-1.502;2023-06-22T14:28:09;4.00;;;2.90;;
23866;SDS011;12114;53.404;-1.502;2023-06-22T14:30:52;3.25;;;2.45;;
23866;SDS011;12114;53.404;-1.502;2023-06-22T14:33:36;4.18;;;2.70;;
23866;SDS011;12114;53.404;-1.502;2023-06-22T14:36:20;4.63;;;2.70;;
23866;SDS011;12114;53.404;-1.502;2023-06-22T14:39:04;4.35;;;2.45;;
23866;SDS011;12114;53.404;-1.502;2023-06-22T14:41:48;3.80;;;2.85;;
23866;SDS011;12114;53.404;-1.502;2023-06-22T14:44:32;3.85;;;2.70;;
23866;SDS011;12114;53.404;-1.502;2023-06-22T14:47:16;3.35;;;2.40;;
23866;SDS011;12114;53.404;-1.502;2023-06-22T14:52:46;4.07;;;2.60;;
23866;SDS011;12114;53.404;-1.502;2023-06-22T14:55:30;5.15;;;2.65;;
23866;SDS011;12114;53.404;-1.502;2023-06-22T14:58:14;4.93;;;2.72;;
23866;SDS011;12114;53.404;-1.502;2023-06-22T15:01:01;3.83;;;2.50;;
23866;SDS011;12114;53.404;-1.502;2023-06-22T15:03:45;4.40;;;3.05;;
23866;SDS011;12114;53.404;-1.502;2023-06-22T15:06:29;4.50;;;2.70;;
23866;SDS011;12114;53.404;-1.502;2023-06-22T15:09:14;3.22;;;2.40;;
23866;SDS011;12114;53.404;-1.502;2023-06-22T15:11:57;3.45;;;2.95;;
23866;SDS011;12114;53.404;-1.502;2023-06-22T15:14:42;3.88;;;2.80;;
23866;SDS011;12114;53.404;-1.502;2023-06-22T15:17:26;4.18;;;2.88;;
23866;SDS011;12114;53.404;-1.502;2023-06-22T15:20:13;4.43;;;2.90;;
23866;SDS011;12114;53.404;-1.502;2023-06-22T15:22:57;4.60;;;3.03;;
23866;SDS011;12114;53.404;-1.502;2023-06-22T15:25:41;4.57;;;2.75;;
23866;SDS011;12114;53.404;-1.502;2023-06-22T15:28:25;7.30;;;3.15;;
23866;SDS011;12114;53.404;-1.502;2023-06-22T15:31:09;5.30;;;3.17;;
23866;SDS011;12114;53.404;-1.502;2023-06-22T15:33:53;7.32;;;3.30;;
23866;SDS011;12114;53.404;-1.502;2023-06-22T15:36:38;4.78;;;3.60;;
23866;SDS011;12114;53.404;-1.502;2023-06-22T15:39:22;5.88;;;3.42;;
23866;SDS011;12114;53.404;-1.502;2023-06-22T15:42:07;5.47;;;2.92;;
23866;SDS011;12114;53.404;-1.502;2023-06-22T15:44:51;4.82;;;3.15;;
23866;SDS011;12114;53.404;-1.502;2023-06-22T15:47:35;4.22;;;3.20;;
23866;SDS011;12114;53.404;-1.502;2023-06-22T15:50:18;5.70;;;3.15;;
23866;SDS011;12114;53.404;-1.502;2023-06-22T15:53:02;4.63;;;3.28;;
23866;SDS011;12114;53.404;-1.502;2023-06-22T15:55:46;4.57;;;3.60;;
23866;SDS011;12114;53.404;-1.502;2023-06-22T15:58:30;6.70;;;3.28;;
23866;SDS011;12114;53.404;-1.502;2023-06-22T16:01:14;5.10;;;3.10;;
23866;SDS011;12114;53.404;-1.502;2023-06-22T16:03:58;3.58;;;3.22;;
23866;SDS011;12114;53.404;-1.502;2023-06-22T16:06:42;6.95;;;3.40;;
23866;SDS011;12114;53.404;-1.502;2023-06-22T16:09:26;4.28;;;2.83;;
23866;SDS011;12114;53.404;-1.502;2023-06-22T16:12:10;3.67;;;3.28;;
23866;SDS011;12114;53.404;-1.502;2023-06-22T16:14:55;3.58;;;2.70;;
23866;SDS011;12114;53.404;-1.502;2023-06-22T16:17:38;3.72;;;2.95;;
23866;SDS011;12114;53.404;-1.502;2023-06-22T16:20:22;3.92;;;3.17;;
23866;SDS011;12114;53.404;-1.502;2023-06-22T16:23:06;4.40;;;3.10;;
23866;SDS011;12114;53.404;-1.502;2023-06-22T16:25:50;5.85;;;3.38;;
23866;SDS011;12114;53.404;-1.502;2023-06-22T16:28:34;4.65;;;3.53;;
23866;SDS011;12114;53.404;-1.502;2023-06-22T16:31:18;4.43;;;3.47;;